LFPM 191800Z AUTO 30011KT 9999 -RA FEW018/// SCT043/// OVC050/// ///CB 09/08 Q1017

Contactez-Nous
Toutes les informations utiles sont sur ce site,
pour en savoir plus

Vous pouvez nous joindre de 15h à 18h tous les jours au 01 60 05 37 33

Merci.

Liens externes